createdAt,value
2017-11-22T00:02:00.881Z,98759.59
2017-11-22T00:04:29.196Z,98750.87
2017-11-22T00:06:57.502Z,98759.09
2017-11-22T00:09:25.802Z,98753.44
2017-11-22T00:11:54.111Z,98758.97
2017-11-22T00:14:22.391Z,98751.17
2017-11-22T00:16:50.708Z,98738.89
2017-11-22T00:19:19.016Z,98751.95
2017-11-22T00:21:47.611Z,98757.23
2017-11-22T00:24:15.973Z,98758.95
2017-11-22T00:26:44.260Z,98753.80
2017-11-22T00:29:12.568Z,98752.59
2017-11-22T00:31:40.857Z,98757.21
2017-11-22T00:34:09.178Z,98752.63
2017-11-22T00:36:37.457Z,98743.27
2017-11-22T00:39:05.780Z,98745.90
2017-11-22T00:41:34.091Z,98754.45
2017-11-22T00:44:02.394Z,98741.91
2017-11-22T00:46:30.773Z,98759.86
2017-11-22T00:48:59.048Z,98751.70
2017-11-22T00:51:27.405Z,98744.96
2017-11-22T00:53:55.676Z,98739.28
2017-11-22T00:56:23.990Z,98727.27
2017-11-22T00:58:52.260Z,98744.83
2017-11-22T01:01:20.560Z,98743.64
2017-11-22T01:03:48.842Z,98743.10
2017-11-22T01:06:17.152Z,98730.44
2017-11-22T01:08:45.438Z,98736.89
2017-11-22T01:11:13.777Z,98735.30
2017-11-22T01:13:42.101Z,98741.27
2017-11-22T01:16:10.362Z,98739.02
2017-11-22T01:18:38.623Z,98731.75
2017-11-22T01:21:06.930Z,98739.91
2017-11-22T01:23:35.281Z,98737.44
2017-11-22T01:26:03.601Z,98743.66
2017-11-22T01:28:31.867Z,98725.16
2017-11-22T01:31:00.177Z,98728.58
2017-11-22T01:33:28.457Z,98729.52
2017-11-22T01:35:56.775Z,98737.69
2017-11-22T01:38:25.029Z,98752.58
2017-11-22T01:40:53.372Z,98734.38
2017-11-22T01:43:21.645Z,98735.04
2017-11-22T01:45:49.977Z,98734.38
2017-11-22T01:48:18.241Z,98740.94
2017-11-22T01:50:46.576Z,98734.48
2017-11-22T01:53:14.848Z,98748.42
2017-11-22T01:55:43.171Z,98738.01
2017-11-22T01:58:11.424Z,98739.36
2017-11-22T02:00:51.352Z,98743.05
2017-11-22T02:03:19.617Z,98743.85
2017-11-22T02:05:47.904Z,98741.36
2017-11-22T02:08:16.369Z,98734.11
2017-11-22T02:10:44.648Z,98740.16
2017-11-22T02:13:12.957Z,98726.81
2017-11-22T02:15:41.242Z,98727.11
2017-11-22T02:18:09.556Z,98722.35
2017-11-22T02:20:37.810Z,98713.39
2017-11-22T02:23:06.075Z,98706.80
2017-11-22T02:25:34.391Z,98703.61
2017-11-22T02:28:02.646Z,98698.88
2017-11-22T02:30:30.960Z,98686.45
2017-11-22T02:32:59.217Z,98697.43
2017-11-22T02:35:27.502Z,98692.78
2017-11-22T02:37:55.777Z,98694.11
2017-11-22T02:40:24.098Z,98689.37
2017-11-22T02:42:52.368Z,98689.80
2017-11-22T02:45:20.640Z,98693.88
2017-11-22T02:47:48.920Z,98695.86
2017-11-22T02:50:17.198Z,98697.70
2017-11-22T02:52:45.477Z,98700.17
2017-11-22T02:55:14.064Z,98700.20
2017-11-22T02:57:42.343Z,98700.06
2017-11-22T03:00:10.619Z,98705.33
2017-11-22T03:02:38.910Z,98703.49
2017-11-22T03:05:07.206Z,98700.98
2017-11-22T03:07:35.482Z,98697.97
2017-11-22T03:10:03.769Z,98696.74
2017-11-22T03:12:32.042Z,98693.86
2017-11-22T03:15:00.337Z,98695.30
2017-11-22T03:17:28.606Z,98697.67
2017-11-22T03:19:57.518Z,98706.48
2017-11-22T03:22:25.761Z,98699.24
2017-11-22T03:24:54.056Z,98698.31
2017-11-22T03:27:22.364Z,98697.26
2017-11-22T03:29:50.729Z,98704.66
2017-11-22T03:32:18.969Z,98691.98
2017-11-22T03:34:47.266Z,98693.68
2017-11-22T03:37:15.563Z,98692.90
2017-11-22T03:39:43.812Z,98690.67
2017-11-22T03:42:12.136Z,98691.21
2017-11-22T03:44:40.629Z,98671.81
2017-11-22T03:47:08.884Z,98678.94
2017-11-22T03:49:42.756Z,98688.03
2017-11-22T03:52:16.569Z,98685.39
2017-11-22T03:54:44.841Z,98668.23
2017-11-22T03:57:13.457Z,98672.73
2017-11-22T03:59:41.733Z,98651.25
2017-11-22T04:02:10.011Z,98648.38
2017-11-22T04:04:38.309Z,98653.25
2017-11-22T04:07:06.784Z,98649.96
2017-11-22T04:09:35.113Z,98644.81
2017-11-22T04:12:03.397Z,98644.44
2017-11-22T04:14:31.705Z,98646.02
2017-11-22T04:16:59.981Z,98654.31
2017-11-22T04:22:21.416Z,98660.94
2017-11-22T04:24:49.705Z,98664.47
2017-11-22T04:27:17.980Z,98643.13
2017-11-22T04:29:46.269Z,98643.77
2017-11-22T04:32:14.836Z,98643.52
2017-11-22T04:34:43.128Z,98649.55
2017-11-22T04:37:11.451Z,98651.14
2017-11-22T04:39:39.732Z,98650.23
2017-11-22T04:42:08.071Z,98642.06
2017-11-22T04:44:36.323Z,98642.57
2017-11-22T04:47:04.968Z,98637.83
2017-11-22T04:49:36.112Z,98649.16
2017-11-22T04:52:04.406Z,98627.41
2017-11-22T04:54:32.693Z,98627.28
2017-11-22T04:57:00.977Z,98628.17
2017-11-22T04:59:29.249Z,98628.16
2017-11-22T05:01:57.536Z,98617.73
2017-11-22T05:04:25.908Z,98615.52
2017-11-22T05:06:54.192Z,98623.01
2017-11-22T05:09:22.459Z,98608.50
2017-11-22T05:11:50.742Z,98605.58
2017-11-22T05:14:19.115Z,98610.71
2017-11-22T05:16:47.386Z,98626.66
2017-11-22T05:19:15.657Z,98622.55
2017-11-22T05:21:43.945Z,98628.36
2017-11-22T05:24:12.229Z,98631.63
2017-11-22T05:26:40.574Z,98634.80
2017-11-22T05:29:08.835Z,98630.34
2017-11-22T05:31:37.437Z,98625.59
2017-11-22T05:34:05.746Z,98632.33
2017-11-22T05:36:34.003Z,98624.55
2017-11-22T05:39:02.353Z,98615.98
2017-11-22T05:41:30.674Z,98621.79
2017-11-22T05:43:58.953Z,98619.42
2017-11-22T05:46:27.228Z,98620.45
2017-11-22T05:48:55.523Z,98608.98
2017-11-22T05:51:23.832Z,98614.02
2017-11-22T05:53:52.165Z,98599.64
2017-11-22T05:56:20.489Z,98611.91
2017-11-22T05:58:48.784Z,98623.25
2017-11-22T06:01:17.076Z,98617.45
2017-11-22T06:03:45.344Z,98616.27
2017-11-22T06:06:13.710Z,98614.94
2017-11-22T06:08:41.970Z,98617.84
2017-11-22T06:11:10.305Z,98617.87
2017-11-22T06:13:38.576Z,98620.13
2017-11-22T06:16:06.876Z,98616.94
2017-11-22T06:18:35.148Z,98618.56
2017-11-22T06:21:03.476Z,98611.31
2017-11-22T06:23:31.744Z,98607.11
2017-11-22T06:26:02.726Z,98607.45
2017-11-22T06:28:31.023Z,98601.78
2017-11-22T06:30:59.290Z,98596.39
2017-11-22T06:33:27.589Z,98616.34
2017-11-22T06:35:56.110Z,98621.76
2017-11-22T06:38:24.582Z,98622.40
2017-11-22T06:40:52.855Z,98626.23
2017-11-22T06:43:21.169Z,98621.11
2017-11-22T06:45:49.514Z,98626.25
2017-11-22T06:48:17.792Z,98626.37
2017-11-22T06:50:46.102Z,98623.99
2017-11-22T06:53:14.444Z,98619.51
2017-11-22T06:55:43.659Z,98624.91
2017-11-22T06:58:11.969Z,98627.56
2017-11-22T07:00:40.290Z,98633.75
2017-11-22T07:03:10.343Z,98631.53
2017-11-22T07:05:38.661Z,98628.50
2017-11-22T07:08:06.997Z,98634.55
2017-11-22T07:10:35.296Z,98632.16
2017-11-22T07:13:04.667Z,98634.41
2017-11-22T07:15:32.932Z,98639.28
2017-11-22T07:18:01.241Z,98637.30
2017-11-22T07:20:29.540Z,98632.44
2017-11-22T07:22:57.820Z,98639.96
2017-11-22T07:25:26.087Z,98644.44
2017-11-22T07:27:54.437Z,98635.86
2017-11-22T07:30:22.730Z,98641.41
2017-11-22T07:32:51.004Z,98641.12
2017-11-22T07:38:20.369Z,98640.20
2017-11-22T07:40:48.715Z,98643.61
2017-11-22T07:43:16.971Z,98643.48
2017-11-22T07:45:45.542Z,98645.22
2017-11-22T07:48:15.740Z,98633.46
2017-11-22T07:50:45.771Z,98640.98
2017-11-22T07:53:14.049Z,98640.73
2017-11-22T07:55:42.338Z,98632.28
2017-11-22T07:58:10.605Z,98640.98
2017-11-22T08:00:38.904Z,98645.85
2017-11-22T08:03:09.142Z,98639.91
2017-11-22T08:05:37.408Z,98638.88
2017-11-22T08:08:05.704Z,98641.45
2017-11-22T08:10:34.897Z,98641.98
2017-11-22T08:13:03.248Z,98637.48
2017-11-22T08:15:31.506Z,98647.30
2017-11-22T08:17:59.854Z,98624.77
2017-11-22T08:20:28.175Z,98651.13
2017-11-22T08:23:00.353Z,98654.83
2017-11-22T08:25:28.680Z,98658.52
2017-11-22T08:27:56.949Z,98653.66
2017-11-22T08:30:25.276Z,98658.80
2017-11-22T08:32:53.542Z,98663.57
2017-11-22T08:35:21.851Z,98658.67
2017-11-22T08:37:50.190Z,98659.20
2017-11-22T08:40:19.430Z,98665.54
2017-11-22T08:42:53.171Z,98660.01
2017-11-22T08:45:21.467Z,98659.06
2017-11-22T08:47:49.840Z,98660.93
2017-11-22T08:50:18.092Z,98659.86
2017-11-22T08:52:46.393Z,98660.27
2017-11-22T08:58:16.820Z,98665.55
2017-11-22T09:00:45.090Z,98663.83
2017-11-22T09:03:15.283Z,98654.45
2017-11-22T09:05:48.526Z,98661.58
2017-11-22T09:08:16.798Z,98666.86
2017-11-22T09:10:45.056Z,98649.72
2017-11-22T09:13:30.859Z,98653.02
2017-11-22T09:15:59.123Z,98665.27
2017-11-22T09:18:33.073Z,98654.84
2017-11-22T09:21:01.356Z,98667.37
2017-11-22T09:23:29.641Z,98665.53
2017-11-22T09:25:57.938Z,98639.02
2017-11-22T09:28:26.231Z,98643.75
2017-11-22T09:30:54.537Z,98661.83
2017-11-22T09:33:25.628Z,98663.27
2017-11-22T09:35:53.949Z,98660.64
2017-11-22T09:38:22.218Z,98662.48
2017-11-22T09:40:50.525Z,98670.80
2017-11-22T09:43:18.820Z,98659.16
2017-11-22T09:45:47.829Z,98675.16
2017-11-22T09:48:16.113Z,98669.20
2017-11-22T09:50:44.454Z,98665.64
2017-11-22T09:53:12.732Z,98668.92
2017-11-22T09:55:41.070Z,98671.72
2017-11-22T09:58:09.439Z,98658.02
2017-11-22T10:00:37.714Z,98663.14
2017-11-22T10:03:06.008Z,98654.98
2017-11-22T10:05:35.257Z,98658.64
2017-11-22T10:08:04.236Z,98654.80
2017-11-22T10:10:32.542Z,98657.13
2017-11-22T10:13:00.845Z,98647.48
2017-11-22T10:15:29.201Z,98646.28
2017-11-22T10:18:03.128Z,98642.98
2017-11-22T10:20:31.400Z,98637.02
2017-11-22T10:22:59.713Z,98632.20
2017-11-22T10:25:28.023Z,98629.16
2017-11-22T10:28:01.887Z,98632.50
2017-11-22T10:30:30.275Z,98631.56
2017-11-22T10:35:59.753Z,98623.25
2017-11-22T10:38:28.052Z,98622.69
2017-11-22T10:40:56.340Z,98617.27
2017-11-22T10:43:24.649Z,98604.08
2017-11-22T10:45:52.946Z,98601.13
2017-11-22T10:48:21.228Z,98613.87
2017-11-22T10:50:49.521Z,98597.31
2017-11-22T10:53:17.797Z,98608.48
2017-11-22T10:55:46.088Z,98602.07
2017-11-22T10:58:14.415Z,98606.27
2017-11-22T11:00:42.730Z,98609.99
2017-11-22T11:03:11.017Z,98600.22
2017-11-22T11:05:39.383Z,98606.73
2017-11-22T11:08:07.671Z,98598.58
2017-11-22T11:10:35.948Z,98593.00
2017-11-22T11:13:04.801Z,98591.49
2017-11-22T11:15:33.116Z,98587.98
2017-11-22T11:18:01.419Z,98583.42
2017-11-22T11:20:29.723Z,98580.48
2017-11-22T11:22:58.676Z,98574.84
2017-11-22T11:25:32.908Z,98562.69
2017-11-22T11:28:01.166Z,98578.02
2017-11-22T11:30:29.476Z,98575.48
2017-11-22T11:32:58.282Z,98575.00
2017-11-22T11:35:38.188Z,98574.81
2017-11-22T11:38:06.455Z,98576.88
2017-11-22T11:40:35.549Z,98556.53
2017-11-22T11:43:04.531Z,98563.09
2017-11-22T11:45:32.899Z,98565.53
2017-11-22T11:48:01.275Z,98565.27
2017-11-22T11:50:32.400Z,98551.70
2017-11-22T11:53:00.775Z,98565.63
2017-11-22T11:55:29.125Z,98557.62
2017-11-22T11:57:57.448Z,98548.84
2017-11-22T12:00:25.732Z,98537.11
2017-11-22T12:02:54.051Z,98543.21
2017-11-22T12:05:22.899Z,98542.90
2017-11-22T12:07:51.151Z,98538.76
2017-11-22T12:10:19.486Z,98546.83
2017-11-22T12:12:47.736Z,98536.81
2017-11-22T12:15:16.155Z,98535.86
2017-11-22T12:17:45.298Z,98534.89
2017-11-22T12:20:13.616Z,98533.07
2017-11-22T12:22:44.547Z,98540.33
2017-11-22T12:25:12.921Z,98530.87
2017-11-22T12:27:41.189Z,98523.11
2017-11-22T12:30:10.272Z,98517.76
2017-11-22T12:32:38.572Z,98512.87
2017-11-22T12:35:06.866Z,98519.19
2017-11-22T12:37:35.192Z,98518.67
2017-11-22T12:40:03.530Z,98510.84
2017-11-22T12:42:32.629Z,98510.89
2017-11-22T12:45:00.925Z,98508.50
2017-11-22T12:47:29.338Z,98509.89
2017-11-22T12:49:57.645Z,98503.88
2017-11-22T12:52:25.964Z,98503.88
2017-11-22T12:54:54.325Z,98496.21
2017-11-22T12:57:22.644Z,98506.72
2017-11-22T12:59:50.930Z,98505.56
2017-11-22T13:02:19.201Z,98497.19
2017-11-22T13:04:47.633Z,98492.27
2017-11-22T13:07:15.946Z,98493.33
2017-11-22T13:09:44.276Z,98486.69
2017-11-22T13:12:12.632Z,98485.39
2017-11-22T13:14:40.898Z,98489.14
2017-11-22T13:17:09.204Z,98478.20
2017-11-22T13:19:37.460Z,98480.89
2017-11-22T13:22:05.833Z,98458.16
2017-11-22T13:24:34.115Z,98470.78
2017-11-22T13:27:02.407Z,98469.30
2017-11-22T13:29:30.757Z,98469.84
2017-11-22T13:31:59.091Z,98462.63
2017-11-22T13:34:27.416Z,98463.27
2017-11-22T13:36:55.797Z,98456.20
2017-11-22T13:39:24.109Z,98470.83
2017-11-22T13:41:55.325Z,98466.17
2017-11-22T13:44:23.726Z,98464.27
2017-11-22T13:46:52.090Z,98462.95
2017-11-22T13:49:22.765Z,98468.48
2017-11-22T13:51:51.064Z,98460.44
2017-11-22T13:54:19.400Z,98464.28
2017-11-22T13:56:47.733Z,98458.75
2017-11-22T13:59:16.017Z,98453.84
2017-11-22T14:01:44.317Z,98451.44
2017-11-22T14:04:12.693Z,98435.99
2017-11-22T14:06:41.039Z,98442.14
2017-11-22T14:09:09.404Z,98438.02
2017-11-22T14:11:37.716Z,98442.62
2017-11-22T14:14:06.006Z,98440.05
2017-11-22T14:16:34.276Z,98434.34
2017-11-22T14:19:02.571Z,98438.59
2017-11-22T14:21:30.851Z,98431.81
2017-11-22T14:23:59.918Z,98437.41
2017-11-22T14:26:28.235Z,98437.76
2017-11-22T14:28:56.544Z,98439.62
2017-11-22T14:31:24.903Z,98422.09
2017-11-22T14:33:53.325Z,98436.52
2017-11-22T14:36:21.682Z,98403.41
2017-11-22T14:38:49.954Z,98397.00
2017-11-22T14:41:18.300Z,98411.26
2017-11-22T14:43:46.598Z,98410.81
2017-11-22T14:46:14.950Z,98416.92
2017-11-22T14:48:43.352Z,98421.03
2017-11-22T14:51:11.679Z,98407.05
2017-11-22T14:53:39.980Z,98409.17
2017-11-22T14:56:08.381Z,98414.37
2017-11-22T14:58:36.804Z,98416.37
2017-11-22T15:01:05.116Z,98413.46
2017-11-22T15:03:33.533Z,98415.48
2017-11-22T15:06:01.813Z,98416.02
2017-11-22T15:08:30.181Z,98409.95
2017-11-22T15:10:58.483Z,98402.75
2017-11-22T15:13:27.311Z,98415.48
2017-11-22T15:15:55.655Z,98406.23
2017-11-22T15:18:24.397Z,98413.22
2017-11-22T15:20:52.705Z,98405.30
2017-11-22T15:23:21.769Z,98404.84
2017-11-22T15:25:50.161Z,98398.28
2017-11-22T15:28:18.404Z,98403.27
2017-11-22T15:30:46.728Z,98400.06
2017-11-22T15:33:15.058Z,98396.77
2017-11-22T15:35:43.321Z,98397.38
2017-11-22T15:38:11.646Z,98396.29
2017-11-22T15:40:39.910Z,98393.84
2017-11-22T15:43:08.236Z,98393.05
2017-11-22T15:45:36.519Z,98395.80
2017-11-22T15:48:05.081Z,98390.79
2017-11-22T15:50:33.407Z,98387.70
2017-11-22T15:53:01.778Z,98381.67
2017-11-22T15:55:30.060Z,98382.16
2017-11-22T15:57:58.855Z,98383.17
2017-11-22T16:00:27.737Z,98377.98
2017-11-22T16:02:56.001Z,98376.03
2017-11-22T16:05:24.256Z,98371.64
2017-11-22T16:07:52.578Z,98369.05
2017-11-22T16:10:20.840Z,98360.53
2017-11-22T16:12:49.212Z,98363.49
2017-11-22T16:15:17.483Z,98367.91
2017-11-22T16:17:45.765Z,98363.77
2017-11-22T16:20:14.073Z,98368.31
2017-11-22T16:22:42.340Z,98349.92
2017-11-22T16:25:10.746Z,98358.98
2017-11-22T16:27:38.994Z,98363.98
2017-11-22T16:30:07.278Z,98362.76
2017-11-22T16:32:35.577Z,98351.78
2017-11-22T16:35:05.433Z,98346.22
2017-11-22T16:37:33.777Z,98347.61
2017-11-22T16:40:02.108Z,98349.59
2017-11-22T16:42:30.425Z,98345.77
2017-11-22T16:44:58.692Z,98355.68
2017-11-22T16:47:27.007Z,98343.30
2017-11-22T16:49:55.301Z,98341.11
2017-11-22T16:52:23.607Z,98350.33
2017-11-22T16:54:51.899Z,98349.28
2017-11-22T16:57:20.168Z,98343.65
2017-11-22T16:59:48.482Z,98347.03
2017-11-22T17:02:16.787Z,98343.70
2017-11-22T17:04:45.054Z,98348.33
2017-11-22T17:07:13.682Z,98353.35
2017-11-22T17:09:42.014Z,98343.50
2017-11-22T17:12:10.303Z,98338.94
2017-11-22T17:14:38.615Z,98357.59
2017-11-22T17:17:06.924Z,98350.92
2017-11-22T17:19:35.302Z,98348.38
2017-11-22T17:22:03.584Z,98350.69
2017-11-22T17:24:31.840Z,98347.71
2017-11-22T17:27:00.160Z,98345.78
2017-11-22T17:29:28.468Z,98347.50
2017-11-22T17:31:56.756Z,98352.66
2017-11-22T17:34:25.034Z,98340.52
2017-11-22T17:36:53.347Z,98355.74
2017-11-22T17:39:21.675Z,98348.01
2017-11-22T17:41:49.990Z,98343.50
2017-11-22T17:44:18.330Z,98342.35
2017-11-22T17:46:46.604Z,98333.06
2017-11-22T17:49:14.915Z,98335.41
2017-11-22T17:51:43.228Z,98341.20
2017-11-22T17:54:11.525Z,98335.82
2017-11-22T17:56:39.801Z,98314.78
2017-11-22T17:59:08.137Z,98324.92
2017-11-22T18:01:36.441Z,98321.11
2017-11-22T18:04:04.897Z,98313.72
2017-11-22T18:06:33.507Z,98319.78
2017-11-22T18:09:01.874Z,98331.25
2017-11-22T18:11:30.211Z,98327.18
2017-11-22T18:13:58.463Z,98261.19
2017-11-22T18:16:26.898Z,98321.03
2017-11-22T18:18:55.147Z,98319.83
2017-11-22T18:21:23.486Z,98324.45
2017-11-22T18:23:51.773Z,98320.66
2017-11-22T18:26:20.110Z,98322.50
2017-11-22T18:28:48.372Z,98317.91
2017-11-22T18:31:16.698Z,98321.73
2017-11-22T18:33:45.026Z,98312.11
2017-11-22T18:36:14.302Z,98312.75
2017-11-22T18:38:42.611Z,98310.81
2017-11-22T18:41:10.884Z,98308.45
2017-11-22T18:43:39.163Z,98301.47
2017-11-22T18:46:07.425Z,98293.82
2017-11-22T18:48:35.719Z,98298.95
2017-11-22T18:51:03.999Z,98294.37
2017-11-22T18:53:32.285Z,98290.57
2017-11-22T18:56:00.585Z,98297.00
2017-11-22T18:58:28.848Z,98284.25
2017-11-22T19:00:57.869Z,98271.34
2017-11-22T19:03:26.101Z,98293.45
2017-11-22T19:05:54.394Z,98289.38
2017-11-22T19:08:22.889Z,98281.61
2017-11-22T19:10:51.196Z,98250.97
2017-11-22T19:13:19.467Z,98258.31
2017-11-22T19:15:47.746Z,98268.42
2017-11-22T19:18:16.025Z,98270.40
2017-11-22T19:20:44.624Z,98267.52
2017-11-22T19:23:12.873Z,98263.31
2017-11-22T19:25:41.140Z,98257.79
2017-11-22T19:28:09.497Z,98250.68
2017-11-22T19:30:37.799Z,98254.48
2017-11-22T19:33:06.107Z,98251.20
2017-11-22T19:35:34.360Z,98253.57
2017-11-22T19:38:02.685Z,98249.90
2017-11-22T19:40:30.969Z,98247.01
2017-11-22T19:42:59.525Z,98243.29
2017-11-22T19:45:27.868Z,98236.84
2017-11-22T19:47:56.369Z,98231.35
2017-11-22T19:50:24.622Z,98229.50
2017-11-22T19:52:52.908Z,98224.51
2017-11-22T19:55:21.220Z,98219.38
2017-11-22T19:57:49.531Z,98220.58
2017-11-22T20:00:17.822Z,98224.13
2017-11-22T20:02:46.093Z,98209.80
2017-11-22T20:05:14.411Z,98212.16
2017-11-22T20:07:46.762Z,98215.56
2017-11-22T20:10:15.094Z,98205.95
2017-11-22T20:12:43.370Z,98215.28
2017-11-22T20:15:11.727Z,98221.08
2017-11-22T20:17:39.982Z,98217.92
2017-11-22T20:20:08.265Z,98213.59
2017-11-22T20:22:36.573Z,98208.99
2017-11-22T20:25:04.871Z,98203.88
2017-11-22T20:27:33.176Z,98205.18
2017-11-22T20:30:01.555Z,98211.35
2017-11-22T20:32:29.875Z,98212.52
2017-11-22T20:34:58.150Z,98213.58
2017-11-22T20:37:26.775Z,98214.38
2017-11-22T20:39:55.034Z,98212.92
2017-11-22T20:42:23.357Z,98211.34
2017-11-22T20:44:51.616Z,98208.32
2017-11-22T20:47:19.911Z,98209.92
2017-11-22T20:49:48.210Z,98208.22
2017-11-22T20:52:16.465Z,98212.13
2017-11-22T20:54:44.755Z,98219.88
2017-11-22T20:57:13.268Z,98216.47
2017-11-22T20:59:41.565Z,98214.51
2017-11-22T21:02:09.877Z,98221.22
2017-11-22T21:04:38.188Z,98224.64
2017-11-22T21:07:06.473Z,98219.50
2017-11-22T21:09:36.463Z,98209.80
2017-11-22T21:12:04.943Z,98209.94
2017-11-22T21:14:33.281Z,98201.91
2017-11-22T21:17:01.549Z,98202.55
2017-11-22T21:19:29.821Z,98205.44
2017-11-22T21:21:58.101Z,98203.08
2017-11-22T21:24:26.482Z,98193.98
2017-11-22T21:26:55.056Z,98197.02
2017-11-22T21:29:23.274Z,98197.03
2017-11-22T21:31:51.617Z,98201.78
2017-11-22T21:34:19.891Z,98210.30
2017-11-22T21:36:48.275Z,98215.57
2017-11-22T21:39:16.549Z,98216.48
2017-11-22T21:41:44.829Z,98213.20
2017-11-22T21:44:13.101Z,98204.14
2017-11-22T21:46:41.388Z,98212.66
2017-11-22T21:49:09.747Z,98212.91
2017-11-22T21:51:38.037Z,98210.80
2017-11-22T21:54:06.325Z,98212.88
2017-11-22T21:56:34.630Z,98212.72
2017-11-22T21:59:02.871Z,98209.30
2017-11-22T22:01:31.145Z,98214.84
2017-11-22T22:03:59.429Z,98216.55
2017-11-22T22:06:27.684Z,98212.88
2017-11-22T22:08:55.997Z,98212.84
2017-11-22T22:11:24.332Z,98220.06
2017-11-22T22:13:52.581Z,98217.66
2017-11-22T22:16:20.885Z,98220.64
2017-11-22T22:18:49.145Z,98216.56
2017-11-22T22:21:17.398Z,98220.53
2017-11-22T22:23:45.678Z,98221.09
2017-11-22T22:26:13.956Z,98222.41
2017-11-22T22:28:42.237Z,98221.38
2017-11-22T22:31:10.543Z,98218.18
2017-11-22T22:33:38.806Z,98221.25
2017-11-22T22:36:07.094Z,98217.55
2017-11-22T22:38:35.353Z,98219.14
2017-11-22T22:41:03.677Z,98223.09
2017-11-22T22:43:31.955Z,98214.31
2017-11-22T22:46:00.257Z,98217.87
2017-11-22T22:48:29.012Z,98215.66
2017-11-22T22:50:57.308Z,98221.05
2017-11-22T22:53:25.649Z,98223.44
2017-11-22T22:55:53.918Z,98221.75
2017-11-22T22:58:22.186Z,98216.09
2017-11-22T23:00:50.496Z,98223.86
2017-11-22T23:03:19.200Z,98218.45
2017-11-22T23:05:47.464Z,98219.52
2017-11-22T23:08:15.784Z,98217.15
2017-11-22T23:10:44.087Z,98215.31
2017-11-22T23:13:12.365Z,98218.73
2017-11-22T23:15:40.642Z,98193.49
2017-11-22T23:18:08.933Z,98206.35
2017-11-22T23:20:37.197Z,98213.88
2017-11-22T23:23:05.601Z,98208.22
2017-11-22T23:25:33.853Z,98212.16
2017-11-22T23:28:02.126Z,98213.88
2017-11-22T23:30:30.408Z,98207.70
2017-11-22T23:32:58.691Z,98212.56
2017-11-22T23:35:26.991Z,98194.27
2017-11-22T23:37:55.257Z,98194.14
2017-11-22T23:40:23.550Z,98207.44
2017-11-22T23:42:51.830Z,98208.34
2017-11-22T23:45:20.137Z,98200.19
2017-11-22T23:47:48.391Z,98198.23
2017-11-22T23:50:17.332Z,98203.23
2017-11-22T23:52:45.626Z,98198.76
2017-11-22T23:55:13.904Z,98191.77
2017-11-22T23:57:42.513Z,98188.73
